Aérodrome :
LOGIN :

S'inscrire | Disclaimer

   EN    FR    IT 

 










Légende :    VFR   VFR Marginal   IFR   IFR Intensif   IFR Très Intensif
Visi : 
Plafond : 
>= 8 km
>= 3000ft
5 à 8 km
1000 à 3000 ft
1500m à 5 km
500 à 1000 ft
800 à 1500m
200 à 500 ft
< 800m
< 200 ft
Symboles :   Orages  Brouillard  Fortes neiges  Fortes précipitations  Vent > 20 kt
SIGMETs :   Divers  Orages  Givrage  Turbulence  Onde Orograph.  Cendres Volcan.






- Altitude de l'aérodrome : 1535 ft
- Code IATA : OUD


GMFO - Ouja Angads

DERNIER METAR :
  • 210830Z 16008KT 9999 FEW020 SCT073 12/09 Q1014 NOSIG

METARs EXPIRÉS :
  • 210800Z 18004KT 9999 FEW020 SCT073 11/08 Q1014 NOSIG
  • 210730Z 12004KT 080V150 9999 FEW033 SCT100 11/08 Q1013 NOSIG
  • 210700Z 17010KT 120V180 9999 FEW033 SCT100 10/08 Q1013 NOSIG
  • 210630Z 19011KT 9999 FEW033 SCT100 10/08 Q1013 NOSIG
  • 210600Z 22009KT 9999 FEW033 SCT100 10/08 Q1013 NOSIG

TAF TAF GMFO
Valide du 21 à 06h jusqu'au 22 à 12h UTC


210500Z 2106/2212 24008KT 9999 FEW033 BKN100
BECMG 2108/2112 18005KT



MET'MAP, la Météo Aéronautique d'un coup d'oeil ! - Copyright ORBIFLY Décembre 2007 - Disclaimer

ORBIFLY MET'MAP TEAM :

Programmation & Développement : Alexandra Zaïnal
Conception & Développement : Baudouin d'Aumeries
Co-Programmation & Développement : Marc-Olivier Méhu
Soutien technique & logistique : Manuel Goepfert

Contact : metmap@orbifly.com




SOURCES & CREDITS :

   NOAA